Chisholm Hibbing Airport Hibbing US
ICAO: KHIB
IATA: HIB
Category: Large
Scheduled Services: Yes

Elevation: 1354 ft
TransAlt. 18000 ft.

Airport Communications:
DULUTH APP/DEP:125.45
ASOS:126.425
DULUTH CLNC DEL:127.4
PRINCETON RDO:122.6
CTAF/UNICOM:123

KHIB Zoom In..

Runways:

(A) RW 04 length 3075 ft width 75 ft
---- / hdg 47

(B) RW 13 length 6758 ft width 150 ft
ILS 110.50 / hdg 130

(C) RW 22 length 3075 ft width 75 ft
---- / hdg 227

(D) RW 31 length 6758 ft width 150 ft
ILS 109.50 / hdg 310

Location; KHIB
Day. 20 / Time. 20.12 Zulu
* Altimeter: 29.88
* Temperature: 23° c. 73.4°f.
* Wind from: 020° Speed 05 kn.
Dewpoint: 18° c.
Visibility: 10 Statute Miles.
Clouds: Broken 2100 ft.

KHIB 202012Z AUTO 02005KT 10SM BKN021 23/18 A2988 RMK AO2 LTG DSNT NE T02330178


Wind From 020°
Speed 05 kn.

 
 
jpsmedia.com for Web Design worldairports.se 2018   terms of use